Terminal Aerodrome Forecast
Issued by NWS

Home | Current Version | Previous Version | Text Only | Print | Product List | Glossary On
Versions: 1 2 3 4 5 6 7 8 9 10 11 12
000
FTUS44 KTSA 100500
TAFRVS
TAF
KRVS 100520Z 1006/1106 00000KT P6SM SCT250
     FM101000 10003KT P6SM VCTS SCT050CB BKN100
      TEMPO 1011/1015 4SM -TSRA BKN040CB
     FM102100 15009KT P6SM SCT050 BKN250
     FM110000 15008KT P6SM BKN250=

USA.gov is the U.S. government's official web portal to all federal, state and local government web resources and services.